Time;durP1;ratioP1;P1;durP2;ratioP2;P2;SDS_P1;SDS_P2;PMS_P1;PMS_P2;Temp;Humidity;BMP_temperature;BMP_pressure;BME280_temperature;BME280_humidity;BME280_pressure;Samples;Min_cycle;Max_cycle;Signal;HPM_P1;HPM_P2
2023/05/10 00:01:48;;;;;;;3.20;1.35;;;14.20;99.90;;;;;;5063452;28;20416;-72
2023/05/10 00:04:14;;;;;;;2.53;1.47;;;14.20;99.90;;;;;;5058077;28;20405;-73
2023/05/10 00:06:41;;;;;;;2.85;1.30;;;14.30;99.90;;;;;;5063992;28;20551;-72
2023/05/10 00:09:07;;;;;;;3.70;1.50;;;14.30;99.90;;;;;;5056698;28;20947;-72
2023/05/10 00:11:33;;;;;;;2.33;1.30;;;14.30;99.90;;;;;;5061496;28;20844;-72
2023/05/10 00:13:59;;;;;;;3.15;1.25;;;14.40;99.90;;;;;;5063927;28;20463;-72
2023/05/10 00:16:26;;;;;;;2.60;1.50;;;14.30;99.90;;;;;;5060672;28;20453;-72
2023/05/10 00:18:52;;;;;;;3.20;1.40;;;14.10;99.90;;;;;;5070334;28;20414;-72
2023/05/10 00:21:18;;;;;;;2.42;1.55;;;14.00;99.90;;;;;;5060291;28;20408;-72
2023/05/10 00:23:44;;;;;;;3.40;1.50;;;14.00;99.90;;;;;;5080445;28;20413;-72
2023/05/10 00:26:10;;;;;;;3.63;1.50;;;14.10;99.90;;;;;;5058570;28;20417;-72
2023/05/10 00:28:36;;;;;;;4.15;1.50;;;14.10;99.90;;;;;;5058366;28;20942;-72
2023/05/10 00:31:03;;;;;;;3.78;1.60;;;14.10;99.90;;;;;;5061397;28;20727;-72
2023/05/10 00:33:30;;;;;;;2.87;1.60;;;14.00;99.90;;;;;;5042919;28;20477;-72
2023/05/10 00:35:56;;;;;;;3.67;1.60;;;13.90;99.90;;;;;;5062699;28;20456;-72
2023/05/10 00:38:22;;;;;;;3.15;1.50;;;13.90;99.90;;;;;;5067477;28;20528;-72
2023/05/10 00:40:48;;;;;;;3.53;1.70;;;13.90;99.90;;;;;;5063121;28;20423;-72
2023/05/10 00:43:14;;;;;;;4.88;1.75;;;13.90;99.90;;;;;;5061292;28;21254;-72
2023/05/10 00:45:41;;;;;;;2.80;1.65;;;13.90;99.90;;;;;;5057956;28;21240;-72
2023/05/10 00:48:08;;;;;;;3.22;1.70;;;13.80;99.90;;;;;;5076904;28;20496;-72
2023/05/10 00:50:36;;;;;;;3.70;1.80;;;13.80;99.90;;;;;;5065511;28;20470;-72
2023/05/10 00:53:03;;;;;;;3.37;1.70;;;13.80;99.90;;;;;;5056295;28;20419;-72
2023/05/10 00:55:30;;;;;;;4.57;1.95;;;13.70;99.90;;;;;;5057253;28;20415;-72
2023/05/10 00:57:57;;;;;;;5.63;2.20;;;13.60;99.90;;;;;;5059894;28;20508;-72
2023/05/10 01:00:23;;;;;;;4.70;1.85;;;13.50;99.90;;;;;;5056894;28;20963;-72
2023/05/10 01:02:50;;;;;;;4.67;1.97;;;13.40;99.90;;;;;;5060248;28;20512;-72
2023/05/10 01:05:16;;;;;;;4.75;2.30;;;13.50;99.90;;;;;;5061410;28;20945;-72
2023/05/10 01:07:42;;;;;;;5.55;2.10;;;13.50;99.90;;;;;;5065272;28;20411;-72
2023/05/10 01:10:10;;;;;;;6.37;2.27;;;13.60;99.90;;;;;;5063978;28;20194;-72
2023/05/10 01:12:40;;;;;;;3.07;2.10;;;13.60;99.90;;;;;;5057173;28;20195;-72
2023/05/10 01:15:10;;;;;;;4.18;2.30;;;13.70;99.90;;;;;;5046270;28;20428;-72
2023/05/10 01:17:41;;;;;;;3.67;2.30;;;13.60;99.90;;;;;;5059786;28;20218;-72
2023/05/10 01:20:10;;;;;;;3.40;2.30;;;13.60;99.90;;;;;;5059330;28;20194;-72
2023/05/10 01:23:07;;;;;;;7.13;2.47;;;13.70;99.90;;;;;;5067386;28;20856;-72
2023/05/10 01:26:23;;;;;;;5.97;2.67;;;13.70;99.90;;;;;;5093211;28;20187;-71
2023/05/10 01:29:14;;;;;;;3.58;2.33;;;13.90;99.90;;;;;;5046300;28;20411;-71
2023/05/10 01:32:27;;;;;;;5.40;2.50;;;14.00;99.90;;;;;;5061306;28;20179;-71
2023/05/10 01:35:03;;;;;;;9.77;2.40;;;14.00;99.90;;;;;;5066743;28;20186;-70
2023/05/10 01:37:59;;;;;;;7.43;3.10;;;14.00;99.90;;;;;;5063010;28;20347;-71
2023/05/10 01:40:42;;;;;;;6.00;2.63;;;13.90;99.90;;;;;;5080541;28;20404;-71
2023/05/10 01:43:19;;;;;;;9.20;2.93;;;13.90;99.90;;;;;;5092875;28;20198;-71
2023/05/10 01:45:56;;;;;;;4.80;2.42;;;13.90;99.90;;;;;;5069693;28;20405;-71
2023/05/10 01:48:27;;;;;;;3.60;2.30;;;13.80;99.90;;;;;;5069474;28;20697;-71
2023/05/10 01:50:56;;;;;;;5.00;2.10;;;13.70;99.90;;;;;;5059278;28;20666;-70
2023/05/10 01:53:23;;;;;;;5.83;2.63;;;13.60;99.90;;;;;;5060485;28;20284;-70
2023/05/10 01:55:55;;;;;;;4.87;2.20;;;13.60;99.90;;;;;;5076084;28;20191;-70
2023/05/10 01:58:29;;;;;;;5.20;2.10;;;13.60;99.90;;;;;;5068370;28;20225;-71
2023/05/10 02:00:59;;;;;;;3.30;2.10;;;13.60;99.90;;;;;;5047674;28;20768;-71
2023/05/10 02:03:27;;;;;;;5.60;2.40;;;13.70;99.90;;;;;;5068523;28;20402;-70
2023/05/10 02:05:57;;;;;;;4.27;2.33;;;13.70;99.90;;;;;;5073332;28;20220;-70
2023/05/10 02:08:25;;;;;;;8.03;2.40;;;13.60;99.90;;;;;;5092756;28;20604;-70
2023/05/10 02:10:56;;;;;;;4.63;2.50;;;13.60;99.90;;;;;;5073953;28;20794;-71
2023/05/10 02:13:25;;;;;;;4.90;2.30;;;13.70;99.90;;;;;;5058946;28;20192;-70
2023/05/10 02:15:54;;;;;;;6.93;2.30;;;13.70;99.90;;;;;;5068652;28;20190;-70
2023/05/10 02:18:23;;;;;;;4.73;2.07;;;13.70;99.90;;;;;;5072873;28;20245;-71
2023/05/10 02:20:53;;;;;;;8.07;2.57;;;13.60;99.90;;;;;;5067824;28;20186;-71
2023/05/10 02:23:21;;;;;;;4.30;2.10;;;13.70;99.90;;;;;;5070660;28;20505;-71
2023/05/10 02:25:51;;;;;;;6.03;2.30;;;13.70;99.90;;;;;;5061890;28;20291;-71
2023/05/10 02:28:19;;;;;;;4.27;1.80;;;13.80;99.90;;;;;;5065570;28;20187;-70
2023/05/10 02:30:47;;;;;;;6.67;2.50;;;13.80;99.90;;;;;;5058947;28;20199;-70
2023/05/10 02:33:15;;;;;;;6.47;2.23;;;13.90;99.90;;;;;;5070032;28;20194;-71
2023/05/10 02:35:42;;;;;;;3.20;1.90;;;14.00;99.90;;;;;;5063168;28;20546;-71
2023/05/10 02:38:12;;;;;;;6.87;2.10;;;14.00;99.90;;;;;;5077322;28;20302;-71
2023/05/10 02:40:41;;;;;;;3.33;1.83;;;13.90;99.90;;;;;;5063383;28;20240;-71
2023/05/10 02:43:14;;;;;;;3.07;2.03;;;13.90;99.90;;;;;;5062759;28;20932;-70
2023/05/10 02:45:42;;;;;;;2.63;1.93;;;14.00;99.90;;;;;;5064746;28;20607;-71
2023/05/10 02:48:08;;;;;;;4.60;2.00;;;14.00;99.90;;;;;;5068805;28;20259;-71
2023/05/10 02:50:40;;;;;;;8.57;2.10;;;14.20;99.90;;;;;;5067613;28;20273;-71
2023/05/10 02:53:23;;;;;;;2.97;1.90;;;14.20;99.90;;;;;;5050993;28;20209;-71
2023/05/10 02:55:55;;;;;;;5.70;1.90;;;14.20;99.90;;;;;;5067705;28;20190;-71
2023/05/10 02:58:22;;;;;;;5.43;1.70;;;14.20;99.90;;;;;;5071742;28;20242;-70
2023/05/10 03:00:48;;;;;;;4.90;1.70;;;14.20;99.90;;;;;;5065616;28;20183;-71
2023/05/10 03:03:14;;;;;;;3.47;1.60;;;14.30;99.90;;;;;;5072972;28;20768;-71
2023/05/10 03:05:41;;;;;;;3.30;1.43;;;14.30;99.90;;;;;;5067766;28;20196;-71
2023/05/10 03:08:08;;;;;;;2.20;1.48;;;14.40;99.90;;;;;;5063482;28;20415;-71
2023/05/10 03:11:10;;;;;;;2.47;1.60;;;14.40;99.90;;;;;;5067565;28;20190;-71
2023/05/10 03:13:56;;;;;;;2.33;1.47;;;14.50;99.90;;;;;;5033171;28;20210;-71
2023/05/10 03:16:39;;;;;;;3.97;1.60;;;14.50;99.90;;;;;;5068618;28;20197;-71
2023/05/10 03:19:46;;;;;;;2.97;1.50;;;14.50;99.90;;;;;;5067414;28;20328;-71
2023/05/10 03:22:21;;;;;;;5.00;1.93;;;14.60;99.90;;;;;;5084927;28;20606;-71
2023/05/10 03:24:51;;;;;;;2.67;1.50;;;14.70;99.90;;;;;;5060101;28;20422;-70
2023/05/10 03:27:18;;;;;;;2.92;1.30;;;14.80;99.90;;;;;;5058709;28;21030;-70
2023/05/10 03:29:46;;;;;;;2.53;1.20;;;14.80;99.90;;;;;;5069789;28;20682;-71
2023/05/10 03:32:12;;;;;;;4.20;1.77;;;14.80;99.90;;;;;;5061443;28;20196;-71
2023/05/10 03:34:43;;;;;;;4.10;1.60;;;14.80;99.90;;;;;;5059559;28;20191;-71
2023/05/10 03:37:09;;;;;;;2.87;1.43;;;14.90;99.90;;;;;;5065454;28;20190;-71
2023/05/10 03:39:36;;;;;;;2.43;1.33;;;14.90;99.90;;;;;;5069963;28;20598;-71
2023/05/10 03:42:02;;;;;;;4.53;1.83;;;14.90;99.90;;;;;;5069060;28;20649;-70
2023/05/10 03:44:29;;;;;;;2.87;1.30;;;15.00;99.90;;;;;;5087498;28;20206;-70
2023/05/10 03:46:56;;;;;;;2.37;1.57;;;15.10;99.90;;;;;;5060453;28;20268;-70
2023/05/10 03:49:23;;;;;;;2.40;1.37;;;15.10;99.90;;;;;;5079703;28;20595;-71
2023/05/10 03:51:49;;;;;;;2.60;1.40;;;15.20;99.90;;;;;;5064763;28;20182;-71
2023/05/10 03:54:15;;;;;;;2.10;1.30;;;15.20;99.90;;;;;;5066229;28;20179;-71
2023/05/10 03:56:42;;;;;;;3.37;1.30;;;15.20;99.90;;;;;;5067592;28;20669;-71
2023/05/10 03:59:08;;;;;;;2.23;1.10;;;15.20;99.90;;;;;;5072002;28;20697;-71
2023/05/10 04:01:35;;;;;;;2.47;1.40;;;15.30;99.90;;;;;;5061615;28;20190;-71
2023/05/10 04:04:01;;;;;;;1.83;1.27;;;15.30;99.90;;;;;;5055159;28;20336;-71
2023/05/10 04:06:28;;;;;;;2.23;1.30;;;15.30;99.90;;;;;;5066612;28;20321;-71
2023/05/10 04:08:55;;;;;;;2.57;1.20;;;15.40;99.90;;;;;;5045121;28;20709;-71
2023/05/10 04:11:21;;;;;;;2.73;1.30;;;15.50;99.90;;;;;;5060018;28;20186;-71
2023/05/10 04:13:48;;;;;;;3.13;1.30;;;15.60;99.90;;;;;;5065975;28;20850;-71
2023/05/10 04:16:14;;;;;;;3.07;1.23;;;15.60;99.90;;;;;;5064079;28;20821;-71
2023/05/10 04:18:40;;;;;;;2.83;1.37;;;15.70;99.90;;;;;;5063939;28;20211;-70
2023/05/10 04:21:13;;;;;;;3.40;1.33;;;15.70;99.90;;;;;;5073761;28;20185;-70
2023/05/10 04:23:40;;;;;;;3.60;1.30;;;15.70;99.90;;;;;;5064331;28;20294;-70
2023/05/10 04:26:06;;;;;;;6.03;1.47;;;15.90;99.90;;;;;;5077716;28;20189;-70
2023/05/10 04:28:32;;;;;;;2.03;1.30;;;16.00;99.90;;;;;;5065137;28;20201;-71
2023/05/10 04:31:09;;;;;;;2.00;1.33;;;16.00;99.90;;;;;;5059030;28;20640;-71
2023/05/10 04:33:36;;;;;;;3.97;1.73;;;16.00;99.90;;;;;;5061842;28;20812;-71
2023/05/10 04:36:03;;;;;;;1.53;1.40;;;16.10;99.90;;;;;;5062030;28;20199;-71
2023/05/10 04:38:30;;;;;;;4.53;1.73;;;16.20;99.90;;;;;;5059477;28;20253;-71
2023/05/10 04:41:09;;;;;;;4.27;2.23;;;16.30;99.90;;;;;;5061630;28;20910;-71
2023/05/10 04:43:36;;;;;;;3.00;1.60;;;16.30;99.90;;;;;;5066837;28;20216;-71
2023/05/10 04:46:03;;;;;;;3.33;1.80;;;16.40;99.90;;;;;;5064928;28;20217;-71
2023/05/10 04:48:29;;;;;;;2.10;1.50;;;16.40;99.90;;;;;;5068209;28;20188;-71
2023/05/10 04:50:56;;;;;;;4.20;1.73;;;16.40;99.90;;;;;;5048263;28;20295;-71
2023/05/10 04:53:22;;;;;;;3.73;2.00;;;16.40;99.90;;;;;;5077618;28;20229;-71
2023/05/10 04:55:49;;;;;;;5.00;1.83;;;16.40;99.90;;;;;;5067876;28;21210;-71
2023/05/10 04:58:15;;;;;;;3.70;2.00;;;16.40;99.90;;;;;;5065512;28;20218;-71
2023/05/10 05:00:42;;;;;;;1.90;1.60;;;16.40;99.90;;;;;;5044350;28;20216;-71
2023/05/10 05:03:09;;;;;;;3.20;1.90;;;16.40;99.90;;;;;;5063603;28;20190;-71
2023/05/10 05:05:35;;;;;;;2.80;1.63;;;16.50;99.90;;;;;;5068264;28;20247;-70
2023/05/10 05:08:01;;;;;;;3.50;1.70;;;16.60;99.90;;;;;;5064194;28;20179;-70
2023/05/10 05:10:27;;;;;;;4.37;1.90;;;16.60;99.90;;;;;;5068974;28;20343;-70
2023/05/10 05:12:54;;;;;;;4.47;1.80;;;16.70;99.90;;;;;;5071917;28;20748;-71
2023/05/10 05:15:20;;;;;;;4.60;1.90;;;16.60;99.90;;;;;;5083433;28;20187;-71
2023/05/10 05:17:46;;;;;;;2.20;1.73;;;16.60;99.90;;;;;;5053826;28;20304;-71
2023/05/10 05:20:13;;;;;;;5.30;2.00;;;16.60;99.90;;;;;;5063251;28;20251;-71
2023/05/10 05:22:39;;;;;;;3.03;2.00;;;16.70;99.90;;;;;;5067200;28;20190;-71
2023/05/10 05:25:06;;;;;;;4.37;2.07;;;16.70;99.90;;;;;;5080929;28;20194;-71
2023/05/10 05:27:33;;;;;;;4.40;2.10;;;16.70;99.90;;;;;;5065950;28;20261;-71
2023/05/10 05:29:59;;;;;;;1.90;1.60;;;16.80;99.90;;;;;;5062407;28;20216;-71
2023/05/10 05:32:26;;;;;;;4.60;1.77;;;16.80;99.90;;;;;;5085698;28;20715;-71
2023/05/10 05:34:52;;;;;;;3.03;1.60;;;16.90;99.90;;;;;;5064534;28;20202;-71
2023/05/10 05:37:21;;;;;;;3.20;1.63;;;17.00;99.90;;;;;;5060276;28;20617;-71
2023/05/10 05:39:48;;;;;;;4.43;1.70;;;17.00;99.90;;;;;;5064860;28;20183;-71
2023/05/10 05:42:16;;;;;;;5.50;1.90;;;17.10;99.90;;;;;;5068503;28;20240;-71
2023/05/10 05:44:42;;;;;;;4.80;1.83;;;17.20;99.90;;;;;;5070108;28;20187;-71
2023/05/10 05:47:09;;;;;;;2.27;1.70;;;17.20;99.90;;;;;;5073056;28;20204;-71
2023/05/10 05:49:35;;;;;;;4.37;1.80;;;17.30;99.90;;;;;;5068902;28;20176;-71
2023/05/10 05:52:03;;;;;;;6.07;1.43;;;17.30;99.90;;;;;;5065727;28;20672;-70
2023/05/10 05:54:31;;;;;;;6.00;2.10;;;17.40;99.90;;;;;;5069841;28;20187;-71
2023/05/10 05:56:59;;;;;;;2.50;1.63;;;17.50;99.90;;;;;;5069760;28;20240;-71
2023/05/10 05:59:26;;;;;;;7.10;1.90;;;17.50;99.90;;;;;;5064544;28;20218;-71
2023/05/10 06:01:52;;;;;;;4.33;1.60;;;17.60;99.90;;;;;;5067534;28;20198;-71
2023/05/10 06:04:19;;;;;;;2.30;1.60;;;17.60;99.90;;;;;;5066856;28;20225;-71
2023/05/10 06:06:46;;;;;;;3.47;1.50;;;17.70;99.90;;;;;;5071170;28;20225;-71
2023/05/10 06:09:12;;;;;;;2.97;1.90;;;17.70;99.90;;;;;;5068558;28;20947;-71
2023/05/10 06:11:38;;;;;;;3.63;1.87;;;17.70;99.90;;;;;;5069692;28;20221;-71
2023/05/10 06:14:06;;;;;;;5.30;2.00;;;17.80;99.90;;;;;;5081016;28;20191;-71
2023/05/10 06:16:34;;;;;;;2.83;2.00;;;17.90;99.90;;;;;;5068771;28;20553;-71
2023/05/10 06:19:00;;;;;;;6.07;1.87;;;18.00;99.90;;;;;;5074574;28;20225;-70
2023/05/10 06:21:26;;;;;;;2.33;1.80;;;18.00;99.90;;;;;;5064323;28;20838;-70
2023/05/10 06:23:52;;;;;;;4.87;2.20;;;18.10;99.90;;;;;;5056284;28;20555;-71
2023/05/10 06:26:20;;;;;;;6.67;2.27;;;18.20;99.90;;;;;;5064064;28;20340;-71
2023/05/10 06:28:46;;;;;;;4.20;1.93;;;18.30;99.90;;;;;;5059632;28;20190;-71
2023/05/10 06:31:13;;;;;;;3.83;1.90;;;18.40;99.90;;;;;;5063522;28;20194;-71
2023/05/10 06:33:39;;;;;;;3.47;1.93;;;18.50;99.90;;;;;;5065767;28;20277;-71
2023/05/10 06:36:05;;;;;;;4.57;2.10;;;18.60;99.90;;;;;;5051607;28;20217;-71
2023/05/10 06:38:32;;;;;;;9.13;2.20;;;18.60;99.90;;;;;;5064947;28;20209;-71
2023/05/10 06:40:58;;;;;;;5.37;2.20;;;18.60;99.90;;;;;;5062132;28;20183;-71
2023/05/10 06:43:26;;;;;;;4.30;2.07;;;18.70;99.90;;;;;;5066710;28;20312;-71
2023/05/10 06:45:52;;;;;;;3.20;1.90;;;18.80;99.90;;;;;;5065274;28;20206;-71
2023/05/10 06:48:18;;;;;;;3.00;2.00;;;18.80;99.90;;;;;;5066115;28;20187;-71
2023/05/10 06:50:45;;;;;;;6.53;1.90;;;18.80;99.90;;;;;;5062367;28;20671;-71
2023/05/10 06:53:11;;;;;;;3.97;1.90;;;18.90;99.90;;;;;;5066485;28;20194;-71
2023/05/10 06:55:38;;;;;;;2.50;1.90;;;19.00;99.90;;;;;;5072768;28;20809;-71
2023/05/10 06:58:04;;;;;;;2.33;1.70;;;19.00;99.90;;;;;;5062144;28;20203;-71
2023/05/10 07:00:31;;;;;;;4.70;1.90;;;19.20;99.90;;;;;;5068627;28;20195;-71
2023/05/10 07:02:57;;;;;;;5.97;2.00;;;19.20;99.90;;;;;;5064646;28;20191;-71
2023/05/10 07:05:23;;;;;;;2.77;1.90;;;19.30;99.90;;;;;;5059396;28;20278;-71
2023/05/10 07:07:50;;;;;;;7.70;2.00;;;19.30;99.90;;;;;;5066346;28;20978;-71
2023/05/10 07:10:16;;;;;;;3.93;1.80;;;19.40;99.90;;;;;;5075872;28;20190;-71
2023/05/10 07:12:43;;;;;;;8.27;2.20;;;19.40;99.90;;;;;;5063076;28;20201;-71
2023/05/10 07:15:09;;;;;;;4.33;1.67;;;19.50;99.90;;;;;;5060452;28;20221;-71
2023/05/10 07:17:35;;;;;;;5.60;2.07;;;19.70;99.90;;;;;;5075487;28;20206;-71
2023/05/10 07:20:03;;;;;;;5.07;2.00;;;19.70;99.90;;;;;;5063516;28;20191;-71
2023/05/10 07:22:29;;;;;;;3.10;1.50;;;19.70;99.90;;;;;;5067006;28;20900;-71
2023/05/10 07:24:56;;;;;;;6.47;1.90;;;19.70;99.90;;;;;;5046552;28;20278;-71
2023/05/10 07:27:22;;;;;;;3.57;1.77;;;19.80;99.90;;;;;;5066900;28;20194;-71
2023/05/10 07:29:48;;;;;;;2.20;1.87;;;19.90;99.90;;;;;;5067898;28;20226;-71
2023/05/10 07:32:14;;;;;;;8.57;2.00;;;20.00;99.90;;;;;;5059707;28;20983;-71
2023/05/10 07:34:41;;;;;;;3.00;1.60;;;20.00;99.90;;;;;;5059624;28;20228;-71
2023/05/10 07:37:07;;;;;;;3.77;1.93;;;20.10;99.90;;;;;;5064943;28;20190;-71
2023/05/10 07:39:33;;;;;;;3.77;1.97;;;20.20;99.90;;;;;;5079527;28;20182;-71
2023/05/10 07:41:59;;;;;;;2.57;1.60;;;20.30;99.90;;;;;;5050186;28;20208;-71
2023/05/10 07:44:25;;;;;;;3.40;1.90;;;20.30;99.90;;;;;;5062184;28;20187;-71
2023/05/10 07:46:52;;;;;;;4.23;1.60;;;20.40;99.90;;;;;;5059323;28;20182;-72
2023/05/10 07:49:18;;;;;;;5.70;1.77;;;20.40;99.90;;;;;;5069428;28;20234;-71
2023/05/10 07:51:44;;;;;;;5.23;2.17;;;20.40;99.90;;;;;;5065981;28;20202;-71
2023/05/10 07:54:11;;;;;;;2.73;1.70;;;20.60;99.90;;;;;;5058146;28;20187;-71
2023/05/10 07:56:37;;;;;;;3.97;1.80;;;20.70;99.90;;;;;;5061684;28;20226;-71
2023/05/10 07:59:06;;;;;;;3.23;2.00;;;20.80;99.90;;;;;;5063450;28;20297;-71
2023/05/10 08:01:34;;;;;;;3.23;1.83;;;20.80;99.90;;;;;;5060039;28;20241;-71
2023/05/10 08:04:01;;;;;;;3.47;2.10;;;20.80;99.90;;;;;;5078035;28;20913;-71
2023/05/10 08:06:29;;;;;;;3.23;1.90;;;20.90;99.90;;;;;;5059793;28;20187;-71
2023/05/10 08:08:56;;;;;;;5.10;2.00;;;21.00;99.90;;;;;;5059544;28;20202;-71
2023/05/10 08:11:23;;;;;;;3.43;1.80;;;21.10;99.90;;;;;;5078381;28;20522;-71
2023/05/10 08:13:51;;;;;;;4.27;1.80;;;21.20;99.90;;;;;;5057461;28;20273;-71
2023/05/10 08:16:18;;;;;;;4.57;1.83;;;21.20;99.90;;;;;;5062787;28;20195;-71
2023/05/10 08:18:46;;;;;;;4.07;2.20;;;21.30;99.90;;;;;;5060202;28;20206;-71
2023/05/10 08:21:13;;;;;;;9.03;2.13;;;21.30;99.90;;;;;;5085677;28;20187;-71
2023/05/10 08:23:40;;;;;;;8.63;2.00;;;21.50;99.90;;;;;;5055686;28;20186;-71
2023/05/10 08:26:07;;;;;;;4.30;1.83;;;21.60;99.90;;;;;;5056514;28;20227;-71
2023/05/10 08:28:33;;;;;;;3.00;2.00;;;21.60;99.90;;;;;;5058798;28;21026;-71
2023/05/10 08:31:01;;;;;;;6.23;2.03;;;21.70;99.90;;;;;;5078726;28;20195;-71
2023/05/10 08:33:27;;;;;;;6.70;2.70;;;21.80;99.90;;;;;;5081247;28;20277;-71
2023/05/10 08:35:53;;;;;;;4.47;2.60;;;21.90;99.90;;;;;;5066622;28;20247;-71
2023/05/10 08:38:19;;;;;;;7.00;3.00;;;22.00;99.90;;;;;;5067749;28;20222;-71
2023/05/10 08:40:48;;;;;;;10.97;3.30;;;22.00;99.90;;;;;;5056579;28;20213;-71
2023/05/10 08:43:15;;;;;;;6.80;2.60;;;22.10;99.90;;;;;;5066604;28;20192;-71
2023/05/10 08:45:46;;;;;;;10.87;2.93;;;22.20;99.90;;;;;;5045492;28;20681;-71
2023/05/10 08:48:14;;;;;;;6.10;2.77;;;22.20;99.90;;;;;;5067750;28;20716;-71
2023/05/10 08:50:42;;;;;;;5.40;2.13;;;22.20;99.90;;;;;;5060453;28;20324;-71
2023/05/10 08:53:14;;;;;;;7.17;2.50;;;22.30;99.90;;;;;;5065909;28;20199;-71
2023/05/10 08:55:42;;;;;;;6.03;2.50;;;22.30;99.90;;;;;;5087229;28;20202;-71
2023/05/10 08:58:09;;;;;;;5.10;2.90;;;22.40;99.90;;;;;;5059041;28;20222;-71
2023/05/10 09:00:38;;;;;;;4.43;2.73;;;22.50;99.90;;;;;;5063331;28;20280;-71
2023/05/10 09:03:06;;;;;;;5.60;2.80;;;22.50;99.90;;;;;;5064985;28;20902;-71
2023/05/10 09:05:32;;;;;;;4.47;2.90;;;22.60;99.90;;;;;;5053819;28;20656;-71
2023/05/10 09:08:00;;;;;;;5.97;2.90;;;22.60;99.90;;;;;;5062607;28;20641;-71
2023/05/10 09:10:28;;;;;;;7.07;2.70;;;22.70;99.90;;;;;;5053117;28;20393;-71
2023/05/10 09:12:57;;;;;;;9.20;3.05;;;22.80;99.90;;;;;;5054131;28;20186;-71
2023/05/10 09:15:24;;;;;;;8.38;2.95;;;22.80;99.90;;;;;;5074087;28;22352;-71
2023/05/10 09:17:50;;;;;;;4.68;2.80;;;22.80;99.90;;;;;;5058741;28;20426;-71
2023/05/10 09:20:20;;;;;;;4.70;2.75;;;23.00;99.90;;;;;;5037322;28;20538;-71
2023/05/10 09:22:47;;;;;;;6.32;2.72;;;23.00;99.90;;;;;;5061205;28;20759;-71
2023/05/10 09:25:16;;;;;;;5.53;2.50;;;23.10;99.90;;;;;;5059591;28;20414;-71
2023/05/10 09:27:48;;;;;;;7.63;2.97;;;23.20;99.90;;;;;;5066836;28;21209;-71
2023/05/10 09:30:25;;;;;;;6.80;2.80;;;23.30;99.90;;;;;;5050668;28;20907;-71
2023/05/10 09:32:52;;;;;;;5.28;2.80;;;23.40;99.90;;;;;;5050805;28;20444;-71
2023/05/10 09:35:24;;;;;;;6.88;2.83;;;23.50;99.90;;;;;;5054230;28;20474;-71
2023/05/10 09:37:56;;;;;;;7.88;2.90;;;23.60;99.90;;;;;;5058734;28;20790;-71
2023/05/10 09:40:29;;;;;;;6.78;2.80;;;23.60;99.90;;;;;;5049035;28;20437;-71
2023/05/10 09:42:59;;;;;;;5.47;3.03;;;23.60;99.90;;;;;;5051025;28;20478;-71
2023/05/10 09:45:29;;;;;;;6.22;3.00;;;23.60;99.90;;;;;;5042064;28;21396;-71
2023/05/10 09:47:57;;;;;;;5.70;2.72;;;23.70;99.90;;;;;;5060094;28;20451;-72
2023/05/10 09:50:24;;;;;;;8.57;3.10;;;23.70;99.90;;;;;;5047995;28;20484;-71
2023/05/10 09:52:59;;;;;;;7.78;2.67;;;23.80;99.90;;;;;;5056481;28;20411;-71
2023/05/10 09:55:35;;;;;;;6.25;2.88;;;23.90;99.90;;;;;;5063345;28;20506;-71
2023/05/10 09:58:02;;;;;;;7.32;3.00;;;24.00;99.90;;;;;;5076354;28;20429;-71
2023/05/10 10:00:35;;;;;;;5.88;2.85;;;24.10;99.90;;;;;;5077509;28;20405;-71
2023/05/10 10:03:03;;;;;;;5.50;2.80;;;24.00;99.90;;;;;;5043606;28;20439;-71
2023/05/10 10:05:35;;;;;;;6.13;2.90;;;23.90;99.90;;;;;;5054685;28;20419;-71
2023/05/10 10:08:05;;;;;;;5.83;2.80;;;24.00;99.90;;;;;;5039576;28;20885;-71
2023/05/10 10:10:33;;;;;;;6.30;2.80;;;23.90;99.90;;;;;;5059149;28;20482;-71
2023/05/10 10:13:00;;;;;;;8.20;4.47;;;24.00;99.90;;;;;;5054789;28;20453;-71
2023/05/10 10:15:27;;;;;;;6.65;2.90;;;24.10;99.90;;;;;;5059796;28;20515;-72
2023/05/10 10:17:54;;;;;;;4.50;2.67;;;24.20;99.90;;;;;;5062495;28;20425;-71
2023/05/10 10:20:22;;;;;;;8.27;3.00;;;24.10;99.90;;;;;;5065420;28;20409;-71
2023/05/10 10:22:49;;;;;;;9.27;2.80;;;24.10;99.90;;;;;;5063964;28;20488;-71
2023/05/10 10:25:21;;;;;;;10.93;3.00;;;24.10;99.90;;;;;;5062183;28;20826;-71
2023/05/10 10:27:54;;;;;;;5.80;2.88;;;24.10;99.90;;;;;;5063144;28;20572;-71
2023/05/10 10:30:55;;;;;;;6.20;2.78;;;24.10;99.90;;;;;;5062671;28;20416;-71
2023/05/10 10:33:51;;;;;;;6.22;2.90;;;24.10;99.90;;;;;;5055980;28;20436;-71
2023/05/10 10:36:19;;;;;;;8.00;2.95;;;23.90;99.90;;;;;;5073656;28;20502;-71
2023/05/10 10:38:48;;;;;;;7.03;2.45;;;23.80;99.90;;;;;;5056158;28;21361;-71
2023/05/10 10:41:37;;;;;;;9.15;2.90;;;23.90;99.90;;;;;;5054114;28;20921;-71
2023/05/10 10:44:22;;;;;;;7.68;3.00;;;23.90;99.90;;;;;;5057967;28;20411;-71
2023/05/10 10:47:23;;;;;;;7.28;2.72;;;23.80;99.90;;;;;;5061704;28;20416;-71
2023/05/10 10:50:05;;;;;;;7.88;2.83;;;23.80;99.90;;;;;;5069427;28;21194;-72
2023/05/10 10:52:43;;;;;;;5.63;2.85;;;23.80;99.90;;;;;;5064207;28;20449;-71
2023/05/10 10:55:23;;;;;;;9.83;3.00;;;23.80;99.90;;;;;;5072529;28;20852;-71
2023/05/10 10:57:53;;;;;;;5.85;2.65;;;23.80;99.90;;;;;;5083238;28;21324;-71
2023/05/10 11:00:31;;;;;;;10.30;3.03;;;23.80;99.90;;;;;;5057858;28;20752;-71
2023/05/10 11:03:07;;;;;;;6.72;2.88;;;23.80;99.90;;;;;;5065303;28;20848;-71
2023/05/10 11:05:36;;;;;;;12.17;3.00;;;23.70;99.90;;;;;;5057060;28;20408;-71
2023/05/10 11:08:27;;;;;;;7.68;2.80;;;23.80;99.90;;;;;;5044946;28;20410;-71
2023/05/10 11:11:00;;;;;;;6.57;2.83;;;23.70;99.90;;;;;;5054553;28;20403;-71
2023/05/10 11:13:42;;;;;;;5.65;2.90;;;23.80;99.90;;;;;;5061448;28;20408;-71
2023/05/10 11:16:23;;;;;;;7.40;2.72;;;23.70;99.90;;;;;;5074603;28;20842;-71
2023/05/10 11:19:04;;;;;;;7.07;2.80;;;23.70;99.90;;;;;;5060883;28;20590;-71
2023/05/10 11:21:33;;;;;;;5.97;2.90;;;23.70;99.90;;;;;;5059265;28;20409;-71
2023/05/10 11:24:05;;;;;;;6.32;2.78;;;23.70;99.90;;;;;;5055094;28;20415;-71
2023/05/10 11:26:35;;;;;;;8.43;2.70;;;23.70;99.90;;;;;;5060860;28;20540;-71
2023/05/10 11:29:04;;;;;;;8.80;3.05;;;23.60;99.90;;;;;;5073313;28;20410;-71
2023/05/10 11:31:30;;;;;;;9.05;3.10;;;23.60;99.90;;;;;;5062133;28;20481;-71
2023/05/10 11:33:59;;;;;;;8.43;3.00;;;23.60;99.90;;;;;;5061859;28;20451;-71
2023/05/10 11:36:29;;;;;;;8.77;2.90;;;23.70;99.90;;;;;;5079000;28;20412;-71
2023/05/10 11:38:57;;;;;;;8.25;2.97;;;23.70;99.90;;;;;;5057760;28;20438;-72
2023/05/10 11:41:24;;;;;;;7.95;2.95;;;23.70;99.90;;;;;;5059169;28;20430;-71
2023/05/10 11:43:55;;;;;;;6.57;2.50;;;23.60;99.90;;;;;;5060073;28;20532;-71
2023/05/10 11:46:27;;;;;;;5.85;2.70;;;23.50;99.90;;;;;;5088398;28;20563;-71
2023/05/10 11:49:01;;;;;;;6.63;2.95;;;23.40;99.90;;;;;;5072472;28;20415;-72
2023/05/10 11:51:28;;;;;;;5.13;2.60;;;23.30;99.90;;;;;;5061027;28;20451;-71
2023/05/10 11:53:56;;;;;;;6.63;3.10;;;23.30;99.90;;;;;;5065591;28;20761;-71
2023/05/10 11:56:23;;;;;;;6.28;2.92;;;23.30;99.90;;;;;;5075589;28;20420;-71
2023/05/10 11:58:56;;;;;;;5.20;2.72;;;23.30;99.90;;;;;;5055065;28;20414;-71
2023/05/10 12:01:24;;;;;;;5.65;2.70;;;23.30;99.90;;;;;;5071181;28;21165;-71
2023/05/10 12:03:53;;;;;;;6.45;2.85;;;23.30;99.90;;;;;;5058644;28;20466;-71
2023/05/10 12:06:21;;;;;;;5.63;2.80;;;23.20;99.90;;;;;;5064688;28;21108;-71
2023/05/10 12:08:53;;;;;;;6.47;2.78;;;23.20;99.90;;;;;;5059928;28;21124;-71
2023/05/10 12:11:25;;;;;;;7.05;2.80;;;23.20;99.90;;;;;;5065916;28;20415;-71
2023/05/10 12:13:52;;;;;;;12.32;2.95;;;23.10;99.90;;;;;;5057460;28;20763;-71
2023/05/10 12:16:24;;;;;;;4.87;2.60;;;23.20;99.90;;;;;;5056319;28;20421;-71
2023/05/10 12:18:57;;;;;;;7.73;2.63;;;23.20;99.90;;;;;;5079863;28;20415;-71
2023/05/10 12:21:23;;;;;;;6.97;2.97;;;23.30;99.90;;;;;;5060104;28;20487;-71
2023/05/10 12:23:59;;;;;;;6.35;2.85;;;23.30;99.90;;;;;;5061471;28;20879;-71
2023/05/10 12:26:28;;;;;;;8.50;2.88;;;23.20;99.90;;;;;;5070798;28;20844;-71
2023/05/10 12:29:11;;;;;;;5.18;2.70;;;23.20;99.90;;;;;;5085116;28;20407;-71
2023/05/10 12:31:58;;;;;;;8.70;2.85;;;23.10;99.90;;;;;;5056219;28;21056;-71
2023/05/10 12:34:38;;;;;;;9.25;3.03;;;23.10;99.90;;;;;;5067995;28;20423;-71
2023/05/10 12:37:05;;;;;;;6.60;2.70;;;22.90;99.90;;;;;;5062138;28;20273;-71
2023/05/10 12:39:43;;;;;;;9.00;2.80;;;22.90;99.90;;;;;;5061070;28;20211;-71
2023/05/10 12:42:10;;;;;;;7.78;3.05;;;22.80;99.90;;;;;;5057320;28;20419;-71
2023/05/10 12:44:36;;;;;;;9.27;2.83;;;22.60;99.90;;;;;;5062177;28;22015;-71
2023/05/10 12:47:03;;;;;;;7.75;3.00;;;22.60;99.90;;;;;;5058643;28;20527;-71
2023/05/10 12:49:29;;;;;;;9.00;3.20;;;22.40;99.90;;;;;;5062097;28;20691;-71
2023/05/10 12:51:55;;;;;;;8.25;2.83;;;22.30;99.90;;;;;;5058969;28;20191;-71
2023/05/10 12:54:21;;;;;;;7.40;2.90;;;22.20;99.90;;;;;;5056899;28;20195;-71
2023/05/10 12:56:48;;;;;;;8.02;3.25;;;22.20;99.90;;;;;;5059829;28;20589;-71
2023/05/10 12:59:14;;;;;;;7.13;3.20;;;22.10;99.90;;;;;;5062074;28;20206;-71